Time;durP1;ratioP1;P1;durP2;ratioP2;P2;SDS_P1;SDS_P2;PMS_P1;PMS_P2;Temp;Humidity;BMP_temperature;BMP_pressure;BME280_temperature;BME280_humidity;BME280_pressure;Samples;Min_cycle;Max_cycle;Signal;HPM_P1;HPM_P2
2023/11/05 00:00:30;;;;;;;;;;;;;;;7.41;100.00;96413.31;135620;1278;24216;-69
2023/11/05 00:03:52;;;;;;;;;;;;;;;7.39;100.00;96408.61;135621;1278;22629;-71
2023/11/05 00:06:55;;;;;;;;;;;;;;;7.59;100.00;96402.67;135691;1278;26500;-68
2023/11/05 00:09:57;;;;;;;;;;;;;;;7.59;100.00;96405.28;135640;1278;22617;-70
2023/11/05 00:13:00;;;;;;;;;;;;;;;7.63;100.00;96403.79;135668;1278;22514;-68
2023/11/05 00:16:02;;;;;;;;;;;;;;;7.68;100.00;96399.77;135674;1278;22515;-73
2023/11/05 00:19:05;;;;;;;;;;;;;;;7.60;100.00;96389.04;135648;1278;22508;-68
2023/11/05 00:22:07;;;;;;;;;;;;;;;7.63;100.00;96379.20;135629;1278;22779;-69
2023/11/05 00:25:10;;;;;;;;;;;;;;;7.62;100.00;96376.86;135658;1278;22515;-75
2023/11/05 00:28:12;;;;;;;;;;;;;;;7.71;100.00;96370.34;135675;1278;22508;-74
2023/11/05 00:31:15;;;;;;;;;;;;;;;7.66;100.00;96364.02;135652;1278;22524;-73
2023/11/05 00:34:17;;;;;;;;;;;;;;;7.49;100.00;96352.95;135680;1275;24342;-74
2023/11/05 00:37:20;;;;;;;;;;;;;;;7.30;100.00;96354.98;135663;1278;22530;-74
2023/11/05 00:40:22;;;;;;;;;;;;;;;7.32;100.00;96353.21;135647;1278;22511;-71
2023/11/05 00:43:25;;;;;;;;;;;;;;;7.37;100.00;96354.49;135645;1278;22516;-72
2023/11/05 00:46:28;;;;;;;;;;;;;;;7.24;100.00;96355.67;135717;1278;22525;-74
2023/11/05 00:49:30;;;;;;;;;;;;;;;7.22;100.00;96344.52;135660;1268;22894;-73
2023/11/05 00:52:33;;;;;;;;;;;;;;;7.20;100.00;96349.23;135665;1267;22531;-74
2023/11/05 00:55:35;;;;;;;;;;;;;;;7.02;100.00;96344.34;135690;1278;24366;-74
2023/11/05 00:58:38;;;;;;;;;;;;;;;7.24;100.00;96333.19;135630;1278;22515;-73
2023/11/05 01:01:40;;;;;;;;;;;;;;;7.33;100.00;96331.06;135648;1278;22537;-73
2023/11/05 01:04:43;;;;;;;;;;;;;;;6.94;100.00;96332.83;135691;1278;24249;-73
2023/11/05 01:07:46;;;;;;;;;;;;;;;6.93;100.00;96334.86;135675;1265;22525;-74
2023/11/05 01:10:49;;;;;;;;;;;;;;;7.01;100.00;96329.59;135691;1278;23077;-75
2023/11/05 01:13:52;;;;;;;;;;;;;;;7.09;100.00;96328.05;135707;1278;22518;-74
2023/11/05 01:16:55;;;;;;;;;;;;;;;7.02;100.00;96322.48;135700;1278;22533;-73
2023/11/05 01:19:57;;;;;;;;;;;;;;;7.12;100.00;96320.68;135695;1278;22515;-73
2023/11/05 01:23:00;;;;;;;;;;;;;;;7.18;100.00;96319.79;135744;1278;22518;-69
2023/11/05 01:26:02;;;;;;;;;;;;;;;7.38;100.00;96317.90;135736;1278;22519;-69
2023/11/05 01:29:05;;;;;;;;;;;;;;;7.37;100.00;96318.21;135686;1278;22519;-73
2023/11/05 01:32:07;;;;;;;;;;;;;;;7.33;100.00;96323.02;135692;1278;22518;-74
2023/11/05 01:35:10;;;;;;;;;;;;;;;7.36;100.00;96317.27;135719;1278;25624;-74
2023/11/05 01:38:12;;;;;;;;;;;;;;;7.39;100.00;96312.92;135704;1278;25445;-73
2023/11/05 01:41:15;;;;;;;;;;;;;;;7.26;100.00;96309.20;135664;1278;22617;-70
2023/11/05 01:44:19;;;;;;;;;;;;;;;7.20;100.00;96313.23;135686;1278;22527;-71
2023/11/05 01:47:21;;;;;;;;;;;;;;;7.26;100.00;96312.56;135718;1278;25255;-69
2023/11/05 01:50:24;;;;;;;;;;;;;;;7.20;100.00;96307.54;135672;1278;22630;-74
2023/11/05 01:53:26;;;;;;;;;;;;;;;7.09;100.00;96311.55;135657;1278;22523;-72
2023/11/05 01:56:29;;;;;;;;;;;;;;;7.14;100.00;96308.05;135713;1278;24413;-72
2023/11/05 01:59:32;;;;;;;;;;;;;;;6.97;100.00;96306.15;135686;1266;22533;-75
2023/11/05 02:02:35;;;;;;;;;;;;;;;7.08;100.00;96308.38;135678;1278;22584;-69
2023/11/05 02:05:37;;;;;;;;;;;;;;;7.12;100.00;96309.73;135679;1259;22509;-68
2023/11/05 02:08:40;;;;;;;;;;;;;;;7.20;100.00;96302.64;135673;1278;22539;-68
2023/11/05 02:11:42;;;;;;;;;;;;;;;7.07;100.00;96310.31;135712;1278;22547;-68
2023/11/05 02:14:45;;;;;;;;;;;;;;;6.80;100.00;96319.81;135681;1278;25601;-72
2023/11/05 02:17:47;;;;;;;;;;;;;;;6.69;100.00;96321.62;135660;1278;22558;-73
2023/11/05 02:20:50;;;;;;;;;;;;;;;6.64;100.00;96302.41;135654;1278;23199;-70
2023/11/05 02:23:52;;;;;;;;;;;;;;;6.68;100.00;96299.23;135683;1278;22529;-70
2023/11/05 02:26:55;;;;;;;;;;;;;;;6.69;100.00;96302.48;135600;1278;22531;-73
2023/11/05 02:29:57;;;;;;;;;;;;;;;6.77;100.00;96301.34;135638;1278;22534;-71
2023/11/05 02:33:00;;;;;;;;;;;;;;;6.96;100.00;96289.76;135693;1278;22538;-73
2023/11/05 02:36:03;;;;;;;;;;;;;;;7.13;100.00;96285.48;135707;1257;22515;-74
2023/11/05 02:39:05;;;;;;;;;;;;;;;7.35;100.00;96280.81;135653;1278;25440;-73
2023/11/05 02:42:08;;;;;;;;;;;;;;;7.37;100.00;96280.23;135639;1278;22528;-73
2023/11/05 02:45:12;;;;;;;;;;;;;;;7.48;100.00;96270.94;135725;1278;25220;-72
2023/11/05 02:48:14;;;;;;;;;;;;;;;7.48;100.00;96275.30;135665;1278;22589;-73
2023/11/05 02:51:17;;;;;;;;;;;;;;;7.39;100.00;96276.15;135710;1278;22518;-73
2023/11/05 02:54:19;;;;;;;;;;;;;;;7.52;100.00;96279.64;135718;1278;22514;-74
2023/11/05 02:57:22;;;;;;;;;;;;;;;7.59;100.00;96275.04;135731;1278;22547;-76
2023/11/05 03:00:28;;;;;;;;;;;;;;;7.67;100.00;96272.20;135647;1278;22520;-73
2023/11/05 03:03:30;;;;;;;;;;;;;;;7.67;100.00;96272.59;135711;1278;24350;-72
2023/11/05 03:06:33;;;;;;;;;;;;;;;7.37;100.00;96275.92;135707;1278;22516;-74
2023/11/05 03:09:35;;;;;;;;;;;;;;;7.31;100.00;96276.66;135711;1278;22521;-76
2023/11/05 03:12:38;;;;;;;;;;;;;;;7.21;100.00;96278.02;135719;1278;22551;-75
2023/11/05 03:15:41;;;;;;;;;;;;;;;7.39;100.00;96273.34;135738;1278;22525;-73
2023/11/05 03:18:43;;;;;;;;;;;;;;;7.31;100.00;96272.98;135707;1278;26549;-72
2023/11/05 03:21:46;;;;;;;;;;;;;;;7.38;100.00;96281.20;135690;1278;22536;-72
2023/11/05 03:24:49;;;;;;;;;;;;;;;7.50;100.00;96285.55;135714;1256;22512;-73
2023/11/05 03:27:51;;;;;;;;;;;;;;;7.43;100.00;96285.33;135736;1278;22504;-75
2023/11/05 03:30:54;;;;;;;;;;;;;;;7.53;100.00;96278.66;135708;1278;24939;-73
2023/11/05 03:33:57;;;;;;;;;;;;;;;7.65;100.00;96270.01;135647;1278;22514;-73
2023/11/05 03:36:59;;;;;;;;;;;;;;;7.82;100.00;96259.60;135767;1278;23930;-76
2023/11/05 03:40:02;;;;;;;;;;;;;;;7.93;100.00;96243.12;135697;1278;22520;-76
2023/11/05 03:43:05;;;;;;;;;;;;;;;8.07;100.00;96228.91;135672;1278;22511;-75
2023/11/05 03:46:09;;;;;;;;;;;;;;;8.05;100.00;96209.13;135734;1278;22517;-75
2023/11/05 03:49:11;;;;;;;;;;;;;;;8.07;100.00;96201.67;135732;1278;22518;-74
2023/11/05 03:52:14;;;;;;;;;;;;;;;8.18;100.00;96194.55;135682;1278;22529;-75
2023/11/05 03:55:16;;;;;;;;;;;;;;;8.27;100.00;96195.61;135708;1278;24278;-73
2023/11/05 03:58:19;;;;;;;;;;;;;;;8.24;100.00;96212.23;135734;1278;22530;-72
2023/11/05 04:01:22;;;;;;;;;;;;;;;8.23;100.00;96233.23;135660;1278;22515;-68
2023/11/05 04:04:24;;;;;;;;;;;;;;;8.00;100.00;96240.19;135695;1278;22532;-72
2023/11/05 04:07:27;;;;;;;;;;;;;;;7.79;100.00;96235.86;135701;1278;22516;-74
2023/11/05 04:10:29;;;;;;;;;;;;;;;7.70;100.00;96224.36;135671;1278;24222;-75
2023/11/05 04:13:32;;;;;;;;;;;;;;;7.61;100.00;96212.30;135710;1278;22563;-74
2023/11/05 04:16:35;;;;;;;;;;;;;;;7.45;100.00;96220.27;135768;1278;22543;-76
2023/11/05 04:19:38;;;;;;;;;;;;;;;7.46;100.00;96228.55;135698;1268;22761;-73
2023/11/05 04:22:45;;;;;;;;;;;;;;;7.60;100.00;96218.27;135729;1278;22518;-70
2023/11/05 04:25:47;;;;;;;;;;;;;;;7.66;100.00;96225.02;135780;1257;22618;-70
2023/11/05 04:28:50;;;;;;;;;;;;;;;7.63;100.00;96220.39;135731;1278;22524;-71
2023/11/05 04:31:55;;;;;;;;;;;;;;;7.54;100.00;96217.92;135700;1260;22560;-76
2023/11/05 04:34:58;;;;;;;;;;;;;;;7.56;100.00;96217.55;135716;1278;22511;-76
2023/11/05 04:38:01;;;;;;;;;;;;;;;7.55;100.00;96219.89;135737;1278;22526;-75
2023/11/05 04:41:03;;;;;;;;;;;;;;;7.70;100.00;96218.42;135667;1278;25382;-71
2023/11/05 04:44:06;;;;;;;;;;;;;;;7.87;100.00;96220.69;135729;1278;22515;-70
2023/11/05 04:47:08;;;;;;;;;;;;;;;8.01;100.00;96216.95;135727;1278;22511;-68
2023/11/05 04:50:11;;;;;;;;;;;;;;;8.13;100.00;96207.31;135658;1278;22509;-70
2023/11/05 04:53:14;;;;;;;;;;;;;;;8.35;100.00;96209.16;135725;1278;22556;-72
2023/11/05 04:56:16;;;;;;;;;;;;;;;8.29;100.00;96208.27;135680;1278;24020;-69
2023/11/05 04:59:19;;;;;;;;;;;;;;;8.19;100.00;96215.48;135700;1278;22517;-69
2023/11/05 05:02:21;;;;;;;;;;;;;;;8.13;100.00;96220.78;135664;1278;22512;-68
2023/11/05 05:05:24;;;;;;;;;;;;;;;8.23;100.00;96233.09;135703;1278;22554;-68
2023/11/05 05:08:26;;;;;;;;;;;;;;;8.41;100.00;96233.50;135665;1261;24834;-68
2023/11/05 05:11:29;;;;;;;;;;;;;;;8.38;100.00;96240.93;135686;1278;22515;-70
2023/11/05 05:14:31;;;;;;;;;;;;;;;8.39;100.00;96235.73;135632;1267;22532;-73
2023/11/05 05:17:34;;;;;;;;;;;;;;;8.49;100.00;96226.84;135685;1278;22514;-73
2023/11/05 05:20:36;;;;;;;;;;;;;;;8.48;100.00;96214.58;135674;1278;22546;-73
2023/11/05 05:23:39;;;;;;;;;;;;;;;8.47;100.00;96194.63;135724;1278;22510;-74
2023/11/05 05:26:42;;;;;;;;;;;;;;;8.53;100.00;96189.57;135687;1278;22541;-72
2023/11/05 05:29:45;;;;;;;;;;;;;;;8.46;100.00;96184.83;135714;1278;25234;-74
2023/11/05 05:32:47;;;;;;;;;;;;;;;8.40;100.00;96187.45;135681;1278;23862;-75
2023/11/05 05:35:50;;;;;;;;;;;;;;;8.33;100.00;96177.67;135694;1278;22612;-73
2023/11/05 05:38:53;;;;;;;;;;;;;;;8.30;100.00;96178.42;135661;1278;22550;-72
2023/11/05 05:41:55;;;;;;;;;;;;;;;8.15;100.00;96177.77;135725;1278;22515;-68
2023/11/05 05:44:58;;;;;;;;;;;;;;;8.25;100.00;96174.55;135737;1260;22517;-70
2023/11/05 05:48:00;;;;;;;;;;;;;;;8.33;100.00;96171.92;135725;1278;22521;-72
2023/11/05 05:51:03;;;;;;;;;;;;;;;8.40;100.00;96159.41;135707;1278;22514;-72
2023/11/05 05:54:05;;;;;;;;;;;;;;;8.44;100.00;96152.90;135732;1261;22516;-73
2023/11/05 05:57:08;;;;;;;;;;;;;;;8.45;100.00;96142.58;135709;1278;22516;-73
2023/11/05 06:00:11;;;;;;;;;;;;;;;8.43;100.00;96138.73;135720;1278;22514;-74
2023/11/05 06:03:14;;;;;;;;;;;;;;;8.57;100.00;96139.73;135699;1278;22516;-69
2023/11/05 06:06:16;;;;;;;;;;;;;;;8.63;100.00;96149.38;135708;1278;22530;-72
2023/11/05 06:09:22;;;;;;;;;;;;;;;8.57;100.00;96161.66;135691;1278;22508;-73
2023/11/05 06:12:25;;;;;;;;;;;;;;;8.70;100.00;96182.41;135692;1259;23007;-72
2023/11/05 06:15:27;;;;;;;;;;;;;;;8.76;100.00;96186.14;135740;1278;25460;-74
2023/11/05 06:18:30;;;;;;;;;;;;;;;8.80;100.00;96198.11;135754;1278;22524;-73
2023/11/05 06:21:32;;;;;;;;;;;;;;;8.83;100.00;96194.57;135633;1267;22537;-70
2023/11/05 06:24:35;;;;;;;;;;;;;;;8.70;100.00;96188.42;135762;1278;22540;-72
2023/11/05 06:27:38;;;;;;;;;;;;;;;8.69;100.00;96185.10;135740;1260;22624;-72
2023/11/05 06:30:40;;;;;;;;;;;;;;;8.84;100.00;96185.39;135711;1260;22522;-70
2023/11/05 06:33:43;;;;;;;;;;;;;;;8.94;100.00;96189.14;135705;1278;22518;-69
2023/11/05 06:36:45;;;;;;;;;;;;;;;8.90;100.00;96190.71;135724;1278;24237;-69
2023/11/05 06:39:48;;;;;;;;;;;;;;;8.86;100.00;96199.30;135718;1278;22511;-72
2023/11/05 06:42:51;;;;;;;;;;;;;;;8.83;100.00;96200.65;135745;1278;25317;-71
2023/11/05 06:45:53;;;;;;;;;;;;;;;8.82;100.00;96203.17;135622;1278;22514;-70
2023/11/05 06:48:56;;;;;;;;;;;;;;;8.80;100.00;96204.23;135704;1278;24353;-71
2023/11/05 06:51:58;;;;;;;;;;;;;;;8.85;100.00;96198.35;135682;1278;22567;-70
2023/11/05 06:55:01;;;;;;;;;;;;;;;8.84;100.00;96197.99;135657;1278;22535;-71
2023/11/05 06:58:04;;;;;;;;;;;;;;;8.79;100.00;96182.91;135694;1278;22510;-72
2023/11/05 07:01:07;;;;;;;;;;;;;;;8.74;100.00;96168.98;135691;1278;22501;-74
2023/11/05 07:04:10;;;;;;;;;;;;;;;8.85;100.00;96162.45;135681;1278;22512;-71
2023/11/05 07:07:13;;;;;;;;;;;;;;;9.39;100.00;96159.67;135712;1278;22522;-73
2023/11/05 07:10:15;;;;;;;;;;;;;;;9.55;100.00;96161.25;135558;1278;183780;-75
2023/11/05 07:13:18;;;;;;;;;;;;;;;9.68;100.00;96157.86;135676;1278;22504;-74
2023/11/05 07:16:22;;;;;;;;;;;;;;;9.52;100.00;96160.17;135760;1259;24197;-75
2023/11/05 07:19:24;;;;;;;;;;;;;;;9.60;100.00;96162.34;135675;1260;22538;-72
2023/11/05 07:22:27;;;;;;;;;;;;;;;9.80;100.00;96163.16;135661;1278;22523;-69
2023/11/05 07:25:29;;;;;;;;;;;;;;;9.92;100.00;96162.16;135731;1270;22520;-68
2023/11/05 07:28:32;;;;;;;;;;;;;;;9.91;100.00;96159.05;135731;1278;22530;-69
2023/11/05 07:31:34;;;;;;;;;;;;;;;9.86;100.00;96151.73;135686;1278;24198;-70
2023/11/05 07:34:37;;;;;;;;;;;;;;;9.82;100.00;96141.88;135676;1278;22617;-70
2023/11/05 07:37:39;;;;;;;;;;;;;;;9.97;100.00;96132.33;135694;1278;22519;-73
2023/11/05 07:40:42;;;;;;;;;;;;;;;10.13;100.00;96126.95;135651;1259;22540;-76
2023/11/05 07:43:45;;;;;;;;;;;;;;;10.19;100.00;96124.45;135676;1278;22543;-73
2023/11/05 07:46:48;;;;;;;;;;;;;;;10.21;100.00;96133.38;135733;1278;23868;-74
2023/11/05 07:49:51;;;;;;;;;;;;;;;10.26;100.00;96142.09;135680;1278;22511;-76
2023/11/05 07:52:53;;;;;;;;;;;;;;;10.39;100.00;96143.61;135731;1278;22515;-73
2023/11/05 07:55:56;;;;;;;;;;;;;;;10.26;100.00;96137.55;135715;1278;22520;-72
2023/11/05 07:58:59;;;;;;;;;;;;;;;10.21;100.00;96130.69;135708;1278;22634;-76
2023/11/05 08:02:01;;;;;;;;;;;;;;;10.38;100.00;96130.89;135710;1278;22511;-75
2023/11/05 08:05:04;;;;;;;;;;;;;;;10.52;100.00;96134.77;135733;1278;22579;-76
2023/11/05 08:08:07;;;;;;;;;;;;;;;10.68;100.00;96136.61;135689;1278;22509;-73
2023/11/05 08:11:09;;;;;;;;;;;;;;;10.74;100.00;96141.25;135742;1278;23688;-72
2023/11/05 08:14:12;;;;;;;;;;;;;;;10.54;100.00;96146.41;135748;1278;22515;-73
2023/11/05 08:17:14;;;;;;;;;;;;;;;10.45;100.00;96148.56;135760;1278;25432;-73
2023/11/05 08:20:18;;;;;;;;;;;;;;;10.56;100.00;96151.13;135728;1278;22521;-74
2023/11/05 08:23:21;;;;;;;;;;;;;;;10.62;100.00;96152.64;135683;1278;22542;-74
2023/11/05 08:26:24;;;;;;;;;;;;;;;10.75;100.00;96146.89;135723;1278;22526;-73
2023/11/05 08:29:27;;;;;;;;;;;;;;;10.82;100.00;96151.20;135734;1278;22610;-74
2023/11/05 08:32:29;;;;;;;;;;;;;;;10.89;100.00;96152.23;135711;1278;22524;-73
2023/11/05 08:35:32;;;;;;;;;;;;;;;10.95;100.00;96152.73;135722;1278;22519;-72
2023/11/05 08:38:35;;;;;;;;;;;;;;;10.87;100.00;96153.38;135727;1278;22519;-74
2023/11/05 08:41:37;;;;;;;;;;;;;;;10.84;100.00;96159.21;135712;1278;22533;-70
2023/11/05 08:44:40;;;;;;;;;;;;;;;10.79;100.00;96158.04;135713;1278;22507;-72
2023/11/05 08:47:43;;;;;;;;;;;;;;;10.85;100.00;96153.56;135748;1278;22508;-74
2023/11/05 08:50:45;;;;;;;;;;;;;;;10.77;100.00;96153.15;135704;1278;22538;-73
2023/11/05 08:53:48;;;;;;;;;;;;;;;10.71;100.00;96157.45;135696;1278;22528;-74
2023/11/05 08:56:51;;;;;;;;;;;;;;;10.71;100.00;96144.86;135678;1278;22535;-72
2023/11/05 08:59:53;;;;;;;;;;;;;;;10.69;100.00;96138.02;135711;1278;25373;-74
2023/11/05 09:02:56;;;;;;;;;;;;;;;10.81;100.00;96136.35;135690;1278;22490;-69
2023/11/05 09:05:58;;;;;;;;;;;;;;;10.83;100.00;96126.15;135693;1278;22510;-71
2023/11/05 09:09:01;;;;;;;;;;;;;;;10.84;100.00;96116.79;135724;1278;22514;-71
2023/11/05 09:12:08;;;;;;;;;;;;;;;10.84;100.00;96116.07;135734;1278;22507;-73
2023/11/05 09:15:10;;;;;;;;;;;;;;;10.78;100.00;96122.16;135732;1278;22511;-73
2023/11/05 09:18:13;;;;;;;;;;;;;;;10.86;100.00;96122.54;135697;1278;23807;-74
2023/11/05 09:21:15;;;;;;;;;;;;;;;10.89;100.00;96115.68;135702;1278;22521;-74
2023/11/05 09:24:18;;;;;;;;;;;;;;;11.07;100.00;96112.23;135697;1278;22521;-70
2023/11/05 09:27:21;;;;;;;;;;;;;;;11.19;100.00;96114.33;135715;1278;22511;-72
2023/11/05 09:30:23;;;;;;;;;;;;;;;11.31;100.00;96115.85;135747;1259;22503;-72
2023/11/05 09:33:26;;;;;;;;;;;;;;;11.12;100.00;96120.46;135692;1278;25385;-74
2023/11/05 09:36:28;;;;;;;;;;;;;;;11.24;100.00;96124.41;135701;1278;22514;-75
2023/11/05 09:39:31;;;;;;;;;;;;;;;11.29;100.00;96118.30;135703;1278;25259;-74
2023/11/05 09:42:33;;;;;;;;;;;;;;;11.22;100.00;96111.73;135698;1259;22631;-70
2023/11/05 09:45:36;;;;;;;;;;;;;;;11.22;100.00;96118.86;135718;1278;22620;-74
2023/11/05 09:48:38;;;;;;;;;;;;;;;11.17;100.00;96128.92;135680;1278;22534;-70
2023/11/05 09:51:42;;;;;;;;;;;;;;;11.14;100.00;96132.53;135643;1278;22534;-67
2023/11/05 09:54:44;;;;;;;;;;;;;;;11.12;100.00;96125.19;135696;1278;22511;-70
2023/11/05 09:57:47;;;;;;;;;;;;;;;11.07;100.00;96127.67;135691;1259;24197;-75
2023/11/05 10:00:51;;;;;;;;;;;;;;;11.03;100.00;96121.63;135672;1278;22517;-75
2023/11/05 10:03:54;;;;;;;;;;;;;;;11.01;100.00;96115.86;135676;1278;22524;-70
2023/11/05 10:06:57;;;;;;;;;;;;;;;11.01;100.00;96105.40;135705;1278;22619;-71
2023/11/05 10:09:59;;;;;;;;;;;;;;;11.05;100.00;96099.89;135692;1278;22731;-70
2023/11/05 10:13:04;;;;;;;;;;;;;;;11.05;100.00;96090.23;135722;1273;22527;-73
2023/11/05 10:16:09;;;;;;;;;;;;;;;11.09;100.00;96088.81;135705;1278;22534;-72
2023/11/05 10:19:12;;;;;;;;;;;;;;;11.19;100.00;96092.59;135700;1278;22515;-74
2023/11/05 10:22:14;;;;;;;;;;;;;;;11.42;100.00;96089.11;135646;1278;22517;-76
2023/11/05 10:25:17;;;;;;;;;;;;;;;11.61;100.00;96086.55;135738;1278;22642;-75
2023/11/05 10:28:19;;;;;;;;;;;;;;;11.71;100.00;96077.92;135696;1278;22757;-74
2023/11/05 10:31:22;;;;;;;;;;;;;;;11.75;100.00;96072.95;135703;1278;22508;-75
2023/11/05 10:34:24;;;;;;;;;;;;;;;11.73;100.00;96059.15;135746;1278;22526;-75
2023/11/05 10:37:27;;;;;;;;;;;;;;;11.81;100.00;96056.34;135703;1278;22517;-73
2023/11/05 10:40:29;;;;;;;;;;;;;;;11.83;100.00;96055.88;135721;1278;22572;-74
2023/11/05 10:43:32;;;;;;;;;;;;;;;11.86;100.00;96050.42;135694;1278;22505;-73
2023/11/05 10:46:35;;;;;;;;;;;;;;;11.96;100.00;96045.55;135679;1278;22536;-73
2023/11/05 10:49:37;;;;;;;;;;;;;;;11.91;100.00;96041.24;135749;1278;22533;-75
2023/11/05 10:52:40;;;;;;;;;;;;;;;11.94;100.00;96036.70;135691;1278;22523;-76
2023/11/05 10:55:43;;;;;;;;;;;;;;;11.93;100.00;96035.05;135721;1278;25459;-76
2023/11/05 10:58:46;;;;;;;;;;;;;;;11.92;100.00;96032.75;135749;1259;24193;-75
2023/11/05 11:01:48;;;;;;;;;;;;;;;11.83;100.00;96026.39;135660;1278;22584;-73
2023/11/05 11:04:52;;;;;;;;;;;;;;;11.95;100.00;96020.20;135697;1278;22543;-76
2023/11/05 11:07:55;;;;;;;;;;;;;;;12.00;100.00;96017.00;135742;1278;22504;-76
2023/11/05 11:10:57;;;;;;;;;;;;;;;12.01;100.00;96005.89;135747;1278;22510;-75
2023/11/05 11:14:00;;;;;;;;;;;;;;;12.26;100.00;95996.47;135758;1259;22511;-75
2023/11/05 11:17:03;;;;;;;;;;;;;;;12.47;100.00;95984.27;135704;1278;22525;-76
2023/11/05 11:20:05;;;;;;;;;;;;;;;12.56;100.00;95982.18;135717;1273;22513;-75
2023/11/05 11:23:08;;;;;;;;;;;;;;;12.59;100.00;95975.23;135703;1278;22526;-69
2023/11/05 11:26:13;;;;;;;;;;;;;;;12.66;100.00;95968.95;135742;1278;25249;-74
2023/11/05 11:29:16;;;;;;;;;;;;;;;12.66;100.00;95976.67;135740;1278;22536;-75
2023/11/05 11:32:18;;;;;;;;;;;;;;;12.74;100.00;95966.80;135738;1278;22520;-74
2023/11/05 11:35:21;;;;;;;;;;;;;;;12.69;100.00;95969.01;135760;1278;22502;-74
2023/11/05 11:38:23;;;;;;;;;;;;;;;12.50;100.00;95965.16;135718;1278;22511;-76
2023/11/05 11:41:26;;;;;;;;;;;;;;;12.41;100.00;95954.13;135683;1278;22509;-76
2023/11/05 11:44:29;;;;;;;;;;;;;;;12.44;100.00;95953.05;135674;1278;22494;-76
2023/11/05 11:47:32;;;;;;;;;;;;;;;12.54;100.00;95957.23;135679;1278;22517;-76
2023/11/05 11:50:35;;;;;;;;;;;;;;;12.27;100.00;95959.34;135673;1278;22504;-77
2023/11/05 11:53:39;;;;;;;;;;;;;;;12.25;100.00;95958.34;135664;1278;22514;-77
2023/11/05 11:56:43;;;;;;;;;;;;;;;12.31;100.00;95957.28;135692;1278;22536;-74
2023/11/05 11:59:45;;;;;;;;;;;;;;;12.14;100.00;95960.52;135678;1278;22758;-77
2023/11/05 12:02:48;;;;;;;;;;;;;;;12.30;100.00;95979.51;135711;1278;22929;-76
2023/11/05 12:05:52;;;;;;;;;;;;;;;12.39;100.00;95981.35;135669;1278;22500;-76
2023/11/05 12:08:55;;;;;;;;;;;;;;;12.33;100.00;95982.70;135707;1259;22638;-72
2023/11/05 12:12:00;;;;;;;;;;;;;;;12.28;100.00;95974.16;135755;1278;22507;-71
2023/11/05 12:15:03;;;;;;;;;;;;;;;12.20;100.00;95963.17;135699;1278;22719;-74
2023/11/05 12:18:06;;;;;;;;;;;;;;;12.24;100.00;95968.23;135700;1278;22517;-75
2023/11/05 12:21:09;;;;;;;;;;;;;;;12.36;100.00;95974.06;135660;1278;22520;-77
2023/11/05 12:24:11;;;;;;;;;;;;;;;12.32;100.00;95981.52;135689;1259;22519;-68
2023/11/05 12:27:14;;;;;;;;;;;;;;;12.39;100.00;95981.16;135691;1278;22543;-71
2023/11/05 12:30:18;;;;;;;;;;;;;;;12.46;100.00;95977.16;135722;1278;22508;-77
2023/11/05 12:33:21;;;;;;;;;;;;;;;12.45;100.00;95970.06;135778;1275;22981;-75
2023/11/05 12:36:24;;;;;;;;;;;;;;;12.47;100.00;95970.45;135731;1278;22506;-76
2023/11/05 12:39:26;;;;;;;;;;;;;;;12.56;100.00;95964.46;135728;1278;22511;-73
2023/11/05 12:42:31;;;;;;;;;;;;;;;12.55;100.00;95961.30;135655;1278;22504;-71
2023/11/05 12:45:33;;;;;;;;;;;;;;;12.60;100.00;95957.70;135692;1278;22512;-73
2023/11/05 12:48:36;;;;;;;;;;;;;;;12.58;100.00;95952.52;135697;1278;25386;-67
2023/11/05 12:51:38;;;;;;;;;;;;;;;12.56;100.00;95955.44;135686;1278;22520;-67
2023/11/05 12:54:41;;;;;;;;;;;;;;;12.55;100.00;95948.70;135687;1272;22520;-70
2023/11/05 12:57:44;;;;;;;;;;;;;;;12.52;100.00;95938.86;135702;1278;22618;-77
2023/11/05 13:00:46;;;;;;;;;;;;;;;12.54;100.00;95949.01;135711;1278;22541;-72
2023/11/05 13:03:49;;;;;;;;;;;;;;;12.57;100.00;95951.02;135649;1278;22510;-70
2023/11/05 13:06:54;;;;;;;;;;;;;;;12.64;100.00;95959.39;135703;1278;22508;-72
2023/11/05 13:09:57;;;;;;;;;;;;;;;12.78;100.00;95964.95;135704;1278;22641;-74
2023/11/05 13:13:00;;;;;;;;;;;;;;;12.85;100.00;95974.00;135642;1278;25433;-77
2023/11/05 13:16:03;;;;;;;;;;;;;;;12.82;100.00;95974.69;135684;1278;22565;-78
2023/11/05 13:19:05;;;;;;;;;;;;;;;12.85;100.00;95976.77;135684;1259;24241;-77
2023/11/05 13:22:08;;;;;;;;;;;;;;;12.84;100.00;95980.59;135557;1278;22507;-75
2023/11/05 13:25:10;;;;;;;;;;;;;;;12.90;100.00;95979.16;135712;1259;24229;-73
2023/11/05 13:28:13;;;;;;;;;;;;;;;12.86;100.00;95972.65;135709;1278;22509;-75
2023/11/05 13:31:18;;;;;;;;;;;;;;;12.84;100.00;95967.57;135711;1278;22989;-72
2023/11/05 13:34:20;;;;;;;;;;;;;;;12.79;100.00;95963.27;135750;1278;22511;-75
2023/11/05 13:37:23;;;;;;;;;;;;;;;12.66;100.00;95960.02;135636;1278;22504;-77
2023/11/05 13:40:27;;;;;;;;;;;;;;;12.66;100.00;95955.05;135673;1278;22553;-77
2023/11/05 13:43:29;;;;;;;;;;;;;;;12.67;100.00;95957.09;135659;1278;25306;-70
2023/11/05 13:46:32;;;;;;;;;;;;;;;12.57;100.00;95962.06;135705;1278;22508;-76
2023/11/05 13:49:35;;;;;;;;;;;;;;;12.64;100.00;95965.50;135680;1259;22498;-78
2023/11/05 13:52:37;;;;;;;;;;;;;;;12.78;100.00;95969.33;135718;1278;24186;-75
2023/11/05 13:55:40;;;;;;;;;;;;;;;12.78;100.00;95973.34;135739;1275;22521;-76
2023/11/05 13:58:44;;;;;;;;;;;;;;;12.96;100.00;95974.11;135661;1278;22654;-77
2023/11/05 14:01:46;;;;;;;;;;;;;;;12.89;100.00;95975.91;135592;1278;22539;-72
2023/11/05 14:04:49;;;;;;;;;;;;;;;12.72;100.00;95975.95;135684;1278;22505;-69
2023/11/05 14:07:51;;;;;;;;;;;;;;;12.49;100.00;95986.32;135706;1278;23871;-71
2023/11/05 14:10:55;;;;;;;;;;;;;;;12.49;100.00;95987.59;135697;1278;22517;-73
2023/11/05 14:13:58;;;;;;;;;;;;;;;12.46;100.00;95986.52;135693;1278;22507;-73
2023/11/05 14:17:01;;;;;;;;;;;;;;;12.52;100.00;95986.84;135669;1278;24040;-72
2023/11/05 14:20:06;;;;;;;;;;;;;;;12.47;100.00;95978.50;135671;1278;23319;-73
2023/11/05 14:23:12;;;;;;;;;;;;;;;12.33;100.00;95983.88;135593;1278;22537;-67
2023/11/05 14:26:15;;;;;;;;;;;;;;;12.50;100.00;95988.96;135658;1259;24216;-68
2023/11/05 14:29:17;;;;;;;;;;;;;;;12.64;100.00;95988.66;135689;1278;23136;-67
2023/11/05 14:32:20;;;;;;;;;;;;;;;12.75;100.00;95992.43;135661;1278;22520;-68
2023/11/05 14:35:24;;;;;;;;;;;;;;;12.88;100.00;95977.50;135598;1278;22529;-68
2023/11/05 14:38:26;;;;;;;;;;;;;;;12.89;100.00;95974.77;135696;1278;22498;-67
2023/11/05 14:41:31;;;;;;;;;;;;;;;12.93;100.00;95978.45;135627;1278;22532;-76
2023/11/05 14:44:34;;;;;;;;;;;;;;;12.90;100.00;95975.83;135634;1259;22510;-73
2023/11/05 14:47:37;;;;;;;;;;;;;;;12.84;100.00;95970.59;135625;1278;22514;-73
2023/11/05 14:50:39;;;;;;;;;;;;;;;12.75;100.00;95972.48;135680;1278;22540;-76
2023/11/05 14:53:43;;;;;;;;;;;;;;;12.65;100.00;95981.53;135653;1259;22501;-75
2023/11/05 14:56:46;;;;;;;;;;;;;;;12.49;100.00;95982.91;135640;1278;22504;-76
2023/11/05 14:59:49;;;;;;;;;;;;;;;12.31;100.00;95984.89;135640;1278;22538;-74
2023/11/05 15:02:51;;;;;;;;;;;;;;;12.09;100.00;95995.33;135594;1278;22515;-74
2023/11/05 15:05:54;;;;;;;;;;;;;;;12.17;100.00;95992.36;135607;1259;22511;-69
2023/11/05 15:08:57;;;;;;;;;;;;;;;12.07;100.00;95996.45;135622;1259;24225;-71
2023/11/05 15:11:59;;;;;;;;;;;;;;;11.90;100.00;95996.70;135620;1278;22769;-75
2023/11/05 15:15:02;;;;;;;;;;;;;;;11.76;100.00;95997.20;135595;1278;23879;-76
2023/11/05 15:18:05;;;;;;;;;;;;;;;11.68;100.00;95998.80;135648;1278;22516;-77
2023/11/05 15:21:07;;;;;;;;;;;;;;;11.68;100.00;95993.95;135614;1278;22624;-75
2023/11/05 15:24:10;;;;;;;;;;;;;;;11.72;100.00;96001.29;135630;1278;22519;-74
2023/11/05 15:27:13;;;;;;;;;;;;;;;11.81;100.00;96011.57;135612;1278;22505;-75
2023/11/05 15:30:15;;;;;;;;;;;;;;;11.76;100.00;96014.04;135637;1278;22580;-70